Time;durP1;ratioP1;P1;durP2;ratioP2;P2;SDS_P1;SDS_P2;PMS_P1;PMS_P2;Temp;Humidity;BMP_temperature;BMP_pressure;BME280_temperature;BME280_humidity;BME280_pressure;Samples;Min_cycle;Max_cycle;Signal;HPM_P1;HPM_P2
2023/01/20 00:00:10;;;;;;;8.18;2.97;;;;;;;;;;5086763;28;20063;-71
2023/01/20 00:02:36;;;;;;;6.32;3.38;;;;;;;;;;5091141;28;20054;-70
2023/01/20 00:05:02;;;;;;;12.93;4.47;;;;;;;;;;5088928;28;20141;-70
2023/01/20 00:07:28;;;;;;;5.60;2.42;;;;;;;;;;5093536;28;20120;-70
2023/01/20 00:09:55;;;;;;;5.47;2.60;;;;;;;;;;5096107;28;20040;-70
2023/01/20 00:12:21;;;;;;;8.48;2.90;;;;;;;;;;5095711;28;20498;-70
2023/01/20 00:14:47;;;;;;;7.38;2.85;;;;;;;;;;5090085;28;21240;-70
2023/01/20 00:17:13;;;;;;;5.53;2.05;;;;;;;;;;5091605;28;20142;-71
2023/01/20 00:19:39;;;;;;;3.63;2.42;;;;;;;;;;5095934;28;20032;-70
2023/01/20 00:22:05;;;;;;;6.55;2.38;;;;;;;;;;5090501;28;20832;-70
2023/01/20 00:24:32;;;;;;;6.35;2.10;;;;;;;;;;5094695;28;20551;-70
2023/01/20 00:26:58;;;;;;;5.97;2.42;;;;;;;;;;5091638;28;20047;-70
2023/01/20 00:29:24;;;;;;;6.13;2.10;;;;;;;;;;5089735;28;20152;-70
2023/01/20 00:31:51;;;;;;;9.43;2.85;;;;;;;;;;5094475;28;20445;-71
2023/01/20 00:34:17;;;;;;;6.80;2.13;;;;;;;;;;5096531;28;20164;-70
2023/01/20 00:36:43;;;;;;;6.32;2.95;;;;;;;;;;5095854;28;20046;-71
2023/01/20 00:39:09;;;;;;;6.50;2.95;;;;;;;;;;5089281;28;20043;-70
2023/01/20 00:41:35;;;;;;;8.75;3.88;;;;;;;;;;5089322;28;20075;-70
2023/01/20 00:44:01;;;;;;;6.10;2.95;;;;;;;;;;5095303;28;20158;-70
2023/01/20 00:46:28;;;;;;;5.32;2.97;;;;;;;;;;5098069;28;20115;-70
2023/01/20 00:48:54;;;;;;;6.65;3.67;;;;;;;;;;5095602;28;20043;-71
2023/01/20 00:51:20;;;;;;;7.57;3.13;;;;;;;;;;5094448;28;20395;-70
2023/01/20 00:53:46;;;;;;;11.77;3.97;;;;;;;;;;5096460;28;20052;-70
2023/01/20 00:56:13;;;;;;;8.15;4.18;;;;;;;;;;5088612;28;20517;-70
2023/01/20 00:58:41;;;;;;;9.35;4.80;;;;;;;;;;5095907;28;20050;-70
2023/01/20 01:01:07;;;;;;;11.85;4.97;;;;;;;;;;5085998;28;20084;-70
2023/01/20 01:03:34;;;;;;;11.13;4.82;;;;;;;;;;5104792;28;20088;-70
2023/01/20 01:06:06;;;;;;;11.85;4.97;;;;;;;;;;5102523;28;20039;-70
2023/01/20 01:08:33;;;;;;;8.65;4.95;;;;;;;;;;5103642;28;20043;-70
2023/01/20 01:10:59;;;;;;;10.80;5.57;;;;;;;;;;5102524;28;20349;-70
2023/01/20 01:13:26;;;;;;;11.25;6.50;;;;;;;;;;5094691;28;20044;-70
2023/01/20 01:15:52;;;;;;;11.93;6.15;;;;;;;;;;5079800;28;20475;-70
2023/01/20 01:18:18;;;;;;;10.48;6.10;;;;;;;;;;5107843;28;20184;-70
2023/01/20 01:20:44;;;;;;;11.45;5.85;;;;;;;;;;5107830;28;20490;-70
2023/01/20 01:23:11;;;;;;;12.77;6.72;;;;;;;;;;5096336;28;20119;-70
2023/01/20 01:25:37;;;;;;;11.32;6.88;;;;;;;;;;5108597;28;20046;-70
2023/01/20 01:28:03;;;;;;;15.45;6.97;;;;;;;;;;5107166;28;20176;-70
2023/01/20 01:30:29;;;;;;;15.73;7.88;;;;;;;;;;5098217;28;20402;-70
2023/01/20 01:32:56;;;;;;;14.27;7.75;;;;;;;;;;5096157;28;20066;-70
2023/01/20 01:35:22;;;;;;;15.52;7.55;;;;;;;;;;5096001;28;20043;-70
2023/01/20 01:37:48;;;;;;;15.73;8.65;;;;;;;;;;5101877;28;20047;-70
2023/01/20 01:40:14;;;;;;;14.18;7.72;;;;;;;;;;5100792;28;20044;-70
2023/01/20 01:42:40;;;;;;;14.82;7.70;;;;;;;;;;5102162;28;20048;-70
2023/01/20 01:45:17;;;;;;;16.13;7.90;;;;;;;;;;5098715;27;20376;-70
2023/01/20 01:47:43;;;;;;;16.10;7.57;;;;;;;;;;5096380;28;20832;-70
2023/01/20 01:50:10;;;;;;;16.30;8.80;;;;;;;;;;5092568;28;20377;-70
2023/01/20 01:52:53;;;;;;;14.23;8.25;;;;;;;;;;5099425;28;20040;-69
2023/01/20 01:55:20;;;;;;;14.73;7.90;;;;;;;;;;5099066;28;20048;-70
2023/01/20 01:57:47;;;;;;;13.93;7.82;;;;;;;;;;5103409;28;20047;-70
2023/01/20 02:00:13;;;;;;;13.75;8.15;;;;;;;;;;5097551;28;20126;-70
2023/01/20 02:02:42;;;;;;;16.92;8.77;;;;;;;;;;5098720;27;20461;-70
2023/01/20 02:05:08;;;;;;;15.50;7.70;;;;;;;;;;5093352;27;20044;-70
2023/01/20 02:07:35;;;;;;;14.70;7.88;;;;;;;;;;5098772;28;20051;-70
2023/01/20 02:10:01;;;;;;;13.88;7.32;;;;;;;;;;5096872;28;20047;-70
2023/01/20 02:12:28;;;;;;;12.13;6.68;;;;;;;;;;5099595;28;20406;-70
2023/01/20 02:14:56;;;;;;;12.60;6.72;;;;;;;;;;5098451;28;20156;-70
2023/01/20 02:17:41;;;;;;;16.67;6.80;;;;;;;;;;5101430;28;20055;-70
2023/01/20 02:20:20;;;;;;;16.38;6.57;;;;;;;;;;5079192;28;20055;-70
2023/01/20 02:22:46;;;;;;;13.18;6.03;;;;;;;;;;5101209;28;20580;-70
2023/01/20 02:25:21;;;;;;;10.13;5.63;;;;;;;;;;5097992;28;20122;-70
2023/01/20 02:27:47;;;;;;;10.30;5.70;;;;;;;;;;5096539;28;20036;-70
2023/01/20 02:30:20;;;;;;;12.15;5.47;;;;;;;;;;5093092;28;20151;-70
2023/01/20 02:32:49;;;;;;;10.60;4.97;;;;;;;;;;5090370;28;20051;-70
2023/01/20 02:35:23;;;;;;;11.15;5.38;;;;;;;;;;5090988;27;20047;-70
2023/01/20 02:38:02;;;;;;;7.10;4.22;;;;;;;;;;5098852;28;20063;-70
2023/01/20 02:40:37;;;;;;;7.50;4.20;;;;;;;;;;5100808;27;20138;-70
2023/01/20 02:43:09;;;;;;;8.45;3.90;;;;;;;;;;5095458;27;20418;-70
2023/01/20 02:45:39;;;;;;;10.60;4.45;;;;;;;;;;5106163;27;20487;-70
2023/01/20 02:48:15;;;;;;;10.68;4.53;;;;;;;;;;5097889;27;20035;-70
2023/01/20 02:50:45;;;;;;;7.10;3.75;;;;;;;;;;5097987;27;20104;-70
2023/01/20 02:53:12;;;;;;;12.10;4.57;;;;;;;;;;5092970;27;21257;-70
2023/01/20 02:55:42;;;;;;;11.20;4.57;;;;;;;;;;5096889;27;20046;-70
2023/01/20 02:58:13;;;;;;;9.10;3.90;;;;;;;;;;5096024;27;20051;-70
2023/01/20 03:00:42;;;;;;;16.48;4.70;;;;;;;;;;5097552;27;20479;-69
2023/01/20 03:03:10;;;;;;;8.55;4.25;;;;;;;;;;5095069;28;20039;-69
2023/01/20 03:05:40;;;;;;;8.30;4.35;;;;;;;;;;5098505;27;20035;-70
2023/01/20 03:08:08;;;;;;;9.35;4.22;;;;;;;;;;5097008;27;20606;-70
2023/01/20 03:10:35;;;;;;;9.43;4.00;;;;;;;;;;5092404;28;20047;-70
2023/01/20 03:13:08;;;;;;;9.73;4.45;;;;;;;;;;5091091;28;20040;-70
2023/01/20 03:15:41;;;;;;;10.38;4.80;;;;;;;;;;5100467;27;20136;-70
2023/01/20 03:18:07;;;;;;;11.02;4.90;;;;;;;;;;5097605;28;20056;-70
2023/01/20 03:20:33;;;;;;;8.10;4.75;;;;;;;;;;5087334;27;20040;-70
2023/01/20 03:22:59;;;;;;;12.07;5.95;;;;;;;;;;5096629;27;20042;-70
2023/01/20 03:25:26;;;;;;;12.90;6.28;;;;;;;;;;5098919;27;20578;-70
2023/01/20 03:27:52;;;;;;;11.15;6.20;;;;;;;;;;5095946;27;20051;-70
2023/01/20 03:30:18;;;;;;;12.15;6.97;;;;;;;;;;5089161;27;20048;-70
2023/01/20 03:32:47;;;;;;;16.92;8.07;;;;;;;;;;5095920;27;20942;-70
2023/01/20 03:35:15;;;;;;;16.27;8.52;;;;;;;;;;5086746;27;20040;-70
2023/01/20 03:37:41;;;;;;;18.80;9.82;;;;;;;;;;5095650;28;20058;-69
2023/01/20 03:40:08;;;;;;;17.58;9.77;;;;;;;;;;5098635;27;20043;-70
2023/01/20 03:42:37;;;;;;;19.17;9.98;;;;;;;;;;5091794;28;20491;-70
2023/01/20 03:45:16;;;;;;;20.08;11.57;;;;;;;;;;5089779;28;20451;-70
2023/01/20 03:47:52;;;;;;;21.58;11.15;;;;;;;;;;5094605;27;20509;-70
2023/01/20 03:50:19;;;;;;;21.75;11.63;;;;;;;;;;5088466;27;20043;-69
2023/01/20 03:52:52;;;;;;;28.52;14.18;;;;;;;;;;5091169;28;20051;-70
2023/01/20 03:55:23;;;;;;;30.77;15.40;;;;;;;;;;5096854;28;20040;-70
2023/01/20 03:57:53;;;;;;;29.30;15.85;;;;;;;;;;5092139;28;20066;-69
2023/01/20 04:00:20;;;;;;;28.88;16.08;;;;;;;;;;5093104;28;20039;-69
2023/01/20 04:02:46;;;;;;;31.05;17.02;;;;;;;;;;5073317;28;20142;-70
2023/01/20 04:05:13;;;;;;;33.40;18.35;;;;;;;;;;5094874;28;20036;-70
2023/01/20 04:07:40;;;;;;;36.88;19.05;;;;;;;;;;5095670;28;20063;-69
2023/01/20 04:10:10;;;;;;;37.75;18.75;;;;;;;;;;5096498;28;20719;-69
2023/01/20 04:12:36;;;;;;;34.38;18.67;;;;;;;;;;5096040;28;20447;-69
2023/01/20 04:15:02;;;;;;;42.38;20.10;;;;;;;;;;5095529;28;20046;-70
2023/01/20 04:17:28;;;;;;;43.78;21.25;;;;;;;;;;5092115;28;20057;-70
2023/01/20 04:19:55;;;;;;;39.97;21.05;;;;;;;;;;5091899;28;20055;-69
2023/01/20 04:22:27;;;;;;;43.25;21.70;;;;;;;;;;5095998;28;20574;-69
2023/01/20 04:24:53;;;;;;;44.08;21.08;;;;;;;;;;5094886;28;20100;-69
2023/01/20 04:27:19;;;;;;;43.55;21.88;;;;;;;;;;5096216;28;20063;-69
2023/01/20 04:29:45;;;;;;;42.40;19.73;;;;;;;;;;5090881;28;20039;-69
2023/01/20 04:32:12;;;;;;;46.92;22.42;;;;;;;;;;5090103;28;20185;-69
2023/01/20 04:34:38;;;;;;;46.42;22.02;;;;;;;;;;5094495;28;20039;-69
2023/01/20 04:37:04;;;;;;;47.03;22.02;;;;;;;;;;5092443;28;20062;-69
2023/01/20 04:39:30;;;;;;;50.20;23.58;;;;;;;;;;5089879;28;20077;-69
2023/01/20 04:41:56;;;;;;;52.25;24.48;;;;;;;;;;5094618;28;20074;-69
2023/01/20 04:44:23;;;;;;;54.30;23.70;;;;;;;;;;5092268;28;20368;-69
2023/01/20 04:46:49;;;;;;;55.13;23.95;;;;;;;;;;5095639;28;20376;-69
2023/01/20 04:49:15;;;;;;;51.70;24.70;;;;;;;;;;5098764;28;20080;-69
2023/01/20 04:51:41;;;;;;;46.58;22.90;;;;;;;;;;5094335;28;20460;-69
2023/01/20 04:54:08;;;;;;;48.88;23.60;;;;;;;;;;5091004;28;20048;-69
2023/01/20 04:56:34;;;;;;;39.25;20.05;;;;;;;;;;5087368;28;20047;-69
2023/01/20 04:59:00;;;;;;;45.95;21.67;;;;;;;;;;5094337;28;20055;-69
2023/01/20 05:01:26;;;;;;;47.70;24.05;;;;;;;;;;5096730;28;20130;-69
2023/01/20 05:03:52;;;;;;;44.85;22.95;;;;;;;;;;5090981;28;21758;-69
2023/01/20 05:06:18;;;;;;;50.13;22.58;;;;;;;;;;5097938;28;20031;-68
2023/01/20 05:08:45;;;;;;;46.58;23.08;;;;;;;;;;5108201;27;20039;-69
2023/01/20 05:11:11;;;;;;;55.17;23.92;;;;;;;;;;5091938;28;20039;-69
2023/01/20 05:13:38;;;;;;;54.13;24.65;;;;;;;;;;5095710;28;20058;-69
2023/01/20 05:16:06;;;;;;;61.47;24.42;;;;;;;;;;5090577;28;20403;-69
2023/01/20 05:18:33;;;;;;;102.55;28.77;;;;;;;;;;5094473;28;20155;-69
2023/01/20 05:20:59;;;;;;;185.90;31.95;;;;;;;;;;5089384;28;20084;-69
2023/01/20 05:23:25;;;;;;;251.45;33.13;;;;;;;;;;5091280;28;20076;-69
2023/01/20 05:25:52;;;;;;;366.65;38.03;;;;;;;;;;5094594;28;20100;-69
2023/01/20 05:28:19;;;;;;;350.48;39.28;;;;;;;;;;5094938;28;20035;-69
2023/01/20 05:30:45;;;;;;;311.23;39.80;;;;;;;;;;5098665;28;20456;-69
2023/01/20 05:33:11;;;;;;;393.50;40.78;;;;;;;;;;5088994;28;20178;-69
2023/01/20 05:35:38;;;;;;;327.38;39.22;;;;;;;;;;5096218;28;20105;-69
2023/01/20 05:38:04;;;;;;;394.73;40.92;;;;;;;;;;5073520;28;20135;-69
2023/01/20 05:40:30;;;;;;;354.00;39.88;;;;;;;;;;5094962;28;20077;-67
2023/01/20 05:42:59;;;;;;;360.50;42.58;;;;;;;;;;5094892;28;20043;-68
2023/01/20 05:45:25;;;;;;;377.30;42.22;;;;;;;;;;5095355;28;20768;-68
2023/01/20 05:47:55;;;;;;;386.27;43.15;;;;;;;;;;5094061;28;20044;-69
2023/01/20 05:50:21;;;;;;;416.25;43.65;;;;;;;;;;5096446;28;20076;-69
2023/01/20 05:52:47;;;;;;;346.42;40.92;;;;;;;;;;5097040;28;20394;-68
2023/01/20 05:55:14;;;;;;;422.05;45.97;;;;;;;;;;5087477;28;20047;-68
2023/01/20 05:57:40;;;;;;;335.38;40.22;;;;;;;;;;5098733;28;20229;-69
2023/01/20 06:00:06;;;;;;;479.15;48.05;;;;;;;;;;5095810;28;20044;-69
2023/01/20 06:02:33;;;;;;;433.00;44.03;;;;;;;;;;5097611;28;20526;-69
2023/01/20 06:05:02;;;;;;;375.40;44.67;;;;;;;;;;5100592;28;20429;-69
2023/01/20 06:07:28;;;;;;;349.10;40.60;;;;;;;;;;5098947;28;20105;-69
2023/01/20 06:09:55;;;;;;;388.60;45.47;;;;;;;;;;5098666;28;20130;-68
2023/01/20 06:12:21;;;;;;;395.40;45.22;;;;;;;;;;5092772;28;20098;-69
2023/01/20 06:14:47;;;;;;;379.60;44.65;;;;;;;;;;5098425;28;20042;-69
2023/01/20 06:17:13;;;;;;;375.98;44.47;;;;;;;;;;5101078;27;20059;-69
2023/01/20 06:19:39;;;;;;;326.33;41.97;;;;;;;;;;5080362;28;20079;-69
2023/01/20 06:22:07;;;;;;;309.45;42.65;;;;;;;;;;5099154;28;20459;-69
2023/01/20 06:24:33;;;;;;;247.43;42.35;;;;;;;;;;5095377;28;20364;-69
2023/01/20 06:26:59;;;;;;;232.48;39.78;;;;;;;;;;5100641;28;20040;-69
2023/01/20 06:29:25;;;;;;;192.50;38.80;;;;;;;;;;5097321;28;20063;-66
2023/01/20 06:31:51;;;;;;;220.85;41.05;;;;;;;;;;5096801;27;20051;-69
2023/01/20 06:34:18;;;;;;;190.65;40.85;;;;;;;;;;5102521;27;20067;-69
2023/01/20 06:36:44;;;;;;;165.80;37.67;;;;;;;;;;5103333;28;20036;-69
2023/01/20 06:39:10;;;;;;;180.23;39.53;;;;;;;;;;5101201;28;20044;-70
2023/01/20 06:41:36;;;;;;;183.43;41.45;;;;;;;;;;5102135;28;20067;-69
2023/01/20 06:44:02;;;;;;;176.02;40.28;;;;;;;;;;5102222;28;20169;-69
2023/01/20 06:46:28;;;;;;;166.20;39.42;;;;;;;;;;5102584;28;20141;-69
2023/01/20 06:48:59;;;;;;;169.27;42.05;;;;;;;;;;5096161;27;20050;-70
2023/01/20 06:51:25;;;;;;;161.50;40.35;;;;;;;;;;5102738;27;20047;-70
2023/01/20 06:53:51;;;;;;;175.27;40.83;;;;;;;;;;5097978;27;20128;-69
2023/01/20 06:56:18;;;;;;;162.13;43.22;;;;;;;;;;5101738;27;20088;-70
2023/01/20 06:58:44;;;;;;;161.45;40.47;;;;;;;;;;5094928;27;20054;-69
2023/01/20 07:01:11;;;;;;;182.52;44.78;;;;;;;;;;5102083;27;20100;-69
2023/01/20 07:03:38;;;;;;;179.88;45.42;;;;;;;;;;5094153;27;20367;-70
2023/01/20 07:06:07;;;;;;;201.02;47.40;;;;;;;;;;5103813;27;20500;-69
2023/01/20 07:08:33;;;;;;;200.82;48.25;;;;;;;;;;5100829;28;20058;-69
2023/01/20 07:10:59;;;;;;;204.68;49.53;;;;;;;;;;5101608;28;20073;-70
2023/01/20 07:13:25;;;;;;;196.27;48.50;;;;;;;;;;5094432;28;20050;-69
2023/01/20 07:15:52;;;;;;;212.95;50.28;;;;;;;;;;5102924;28;20035;-69
2023/01/20 07:18:18;;;;;;;184.77;48.20;;;;;;;;;;5095291;27;20047;-69
2023/01/20 07:20:44;;;;;;;190.20;48.20;;;;;;;;;;5100514;28;20055;-70
2023/01/20 07:23:10;;;;;;;187.18;47.90;;;;;;;;;;5106172;28;20141;-70
2023/01/20 07:25:38;;;;;;;190.88;49.72;;;;;;;;;;5104913;28;20035;-69
2023/01/20 07:28:05;;;;;;;200.07;50.97;;;;;;;;;;5103895;28;20073;-68
2023/01/20 07:30:31;;;;;;;193.27;49.00;;;;;;;;;;5104148;28;20035;-66
2023/01/20 07:32:57;;;;;;;182.98;50.13;;;;;;;;;;5106424;28;20515;-71
2023/01/20 07:35:23;;;;;;;188.45;47.92;;;;;;;;;;5104794;27;20036;-69
2023/01/20 07:37:49;;;;;;;194.05;50.78;;;;;;;;;;5104823;28;20040;-70
2023/01/20 07:40:16;;;;;;;179.77;46.55;;;;;;;;;;5097099;28;20055;-70
2023/01/20 07:42:42;;;;;;;188.60;49.88;;;;;;;;;;5105759;27;20055;-71
2023/01/20 07:45:09;;;;;;;190.55;48.05;;;;;;;;;;5100189;27;20055;-70
2023/01/20 07:47:35;;;;;;;183.70;46.58;;;;;;;;;;5097875;28;20206;-70
2023/01/20 07:50:01;;;;;;;177.52;44.90;;;;;;;;;;5103377;28;20035;-70
2023/01/20 07:52:27;;;;;;;181.88;47.88;;;;;;;;;;5095981;28;20130;-70
2023/01/20 07:54:53;;;;;;;201.65;49.20;;;;;;;;;;5101740;27;20043;-70
2023/01/20 07:57:20;;;;;;;183.82;48.50;;;;;;;;;;5102259;27;20044;-70
2023/01/20 07:59:46;;;;;;;191.90;47.13;;;;;;;;;;5102903;27;20077;-69
2023/01/20 08:02:12;;;;;;;182.60;46.80;;;;;;;;;;5104992;28;20035;-70
2023/01/20 08:04:38;;;;;;;192.45;49.42;;;;;;;;;;5095824;28;20067;-71
2023/01/20 08:07:05;;;;;;;189.40;46.28;;;;;;;;;;5097031;28;20379;-71
2023/01/20 08:09:31;;;;;;;169.90;45.00;;;;;;;;;;5103994;28;20043;-76
2023/01/20 08:11:57;;;;;;;177.48;44.22;;;;;;;;;;5099262;28;20345;-70
2023/01/20 08:14:23;;;;;;;179.15;45.92;;;;;;;;;;5105612;28;20403;-70
2023/01/20 08:16:49;;;;;;;173.05;45.85;;;;;;;;;;5108011;28;20098;-71
2023/01/20 08:19:16;;;;;;;164.07;45.40;;;;;;;;;;5107752;28;20043;-71
2023/01/20 08:21:42;;;;;;;175.30;45.70;;;;;;;;;;5098444;28;20499;-71
2023/01/20 08:24:09;;;;;;;182.73;48.70;;;;;;;;;;5096784;27;20095;-70
2023/01/20 08:26:36;;;;;;;159.88;44.45;;;;;;;;;;5100610;28;20131;-70
2023/01/20 08:29:04;;;;;;;155.35;45.10;;;;;;;;;;5099838;27;20169;-71
2023/01/20 08:31:30;;;;;;;148.77;42.90;;;;;;;;;;5093818;28;20055;-70
2023/01/20 08:33:57;;;;;;;150.40;43.10;;;;;;;;;;5102339;28;20121;-71
2023/01/20 08:36:25;;;;;;;152.07;43.33;;;;;;;;;;5102606;28;20036;-71
2023/01/20 08:38:51;;;;;;;154.07;41.63;;;;;;;;;;5102228;28;20124;-71
2023/01/20 08:41:19;;;;;;;154.77;43.92;;;;;;;;;;5104147;28;20123;-71
2023/01/20 08:43:46;;;;;;;144.90;42.10;;;;;;;;;;5103364;28;20043;-72
2023/01/20 08:46:13;;;;;;;126.72;40.95;;;;;;;;;;5094208;28;20479;-72
2023/01/20 08:48:40;;;;;;;143.30;40.75;;;;;;;;;;5095846;28;20499;-72
2023/01/20 08:51:08;;;;;;;134.18;40.55;;;;;;;;;;5104138;28;20028;-72
2023/01/20 08:53:35;;;;;;;137.57;43.33;;;;;;;;;;5103452;28;20043;-71
2023/01/20 08:56:02;;;;;;;137.73;43.40;;;;;;;;;;5096397;28;20370;-72
2023/01/20 08:58:29;;;;;;;144.00;45.75;;;;;;;;;;5103664;28;20191;-72
2023/01/20 09:00:55;;;;;;;135.75;43.33;;;;;;;;;;5094636;28;20183;-72
2023/01/20 09:03:22;;;;;;;137.60;42.10;;;;;;;;;;5103769;28;20137;-72
2023/01/20 09:05:48;;;;;;;143.25;43.47;;;;;;;;;;5100733;28;20092;-72
2023/01/20 09:08:16;;;;;;;135.15;42.15;;;;;;;;;;5105427;28;20070;-72
2023/01/20 09:10:43;;;;;;;133.43;40.20;;;;;;;;;;5101759;28;20035;-72
2023/01/20 09:13:09;;;;;;;140.02;42.78;;;;;;;;;;5092978;28;20040;-72
2023/01/20 09:15:35;;;;;;;121.53;37.42;;;;;;;;;;5104084;28;20075;-72
2023/01/20 09:18:01;;;;;;;124.72;40.10;;;;;;;;;;5101541;28;20109;-72
2023/01/20 09:20:29;;;;;;;127.53;39.63;;;;;;;;;;5090101;28;20130;-72
2023/01/20 09:22:55;;;;;;;128.75;40.17;;;;;;;;;;5102766;28;20482;-73
2023/01/20 09:25:21;;;;;;;116.00;37.42;;;;;;;;;;5103591;28;20160;-72
2023/01/20 09:27:47;;;;;;;123.13;37.65;;;;;;;;;;5103169;28;20453;-72
2023/01/20 09:30:14;;;;;;;127.68;38.83;;;;;;;;;;5102591;28;20241;-72
2023/01/20 09:32:40;;;;;;;116.63;36.78;;;;;;;;;;5095519;28;20126;-72
2023/01/20 09:35:06;;;;;;;127.45;39.60;;;;;;;;;;5094346;28;20032;-72
2023/01/20 09:46:18;;;;;;;100.82;36.63;;;;;;;;;;5084655;28;20040;-73
2023/01/20 09:54:48;;;;;;;106.60;34.42;;;;;;;;;;5085940;28;20596;-72
2023/01/20 09:57:14;;;;;;;109.00;36.60;;;;;;;;;;5065617;28;20474;-72
2023/01/20 09:59:44;;;;;;;110.93;36.65;;;;;;;;;;5086563;28;20079;-72
2023/01/20 10:02:16;;;;;;;102.43;36.05;;;;;;;;;;5085583;28;20032;-72
2023/01/20 10:04:47;;;;;;;94.53;34.85;;;;;;;;;;5085625;28;20040;-72
2023/01/20 10:07:23;;;;;;;106.38;36.67;;;;;;;;;;5086879;28;20376;-72
2023/01/20 10:09:50;;;;;;;101.82;35.60;;;;;;;;;;5086392;28;20625;-72
2023/01/20 10:12:19;;;;;;;104.70;35.72;;;;;;;;;;5084578;28;20170;-72
2023/01/20 10:14:49;;;;;;;96.97;33.88;;;;;;;;;;5068305;28;20163;-73
2023/01/20 10:17:24;;;;;;;95.22;33.63;;;;;;;;;;5084504;28;20094;-72
2023/01/20 10:20:03;;;;;;;94.25;33.35;;;;;;;;;;5086601;28;20039;-73
2023/01/20 10:22:31;;;;;;;91.93;32.88;;;;;;;;;;5066641;28;20051;-73
2023/01/20 10:24:57;;;;;;;84.45;32.03;;;;;;;;;;5086598;28;20028;-73
2023/01/20 10:27:28;;;;;;;90.97;32.75;;;;;;;;;;5067178;28;20063;-73
2023/01/20 10:29:57;;;;;;;83.57;31.40;;;;;;;;;;5066732;28;20492;-73
2023/01/20 10:32:35;;;;;;;104.70;34.40;;;;;;;;;;5083602;28;20248;-73
2023/01/20 10:35:08;;;;;;;90.18;32.97;;;;;;;;;;5068438;28;20155;-73
2023/01/20 10:37:34;;;;;;;94.88;33.15;;;;;;;;;;5084023;28;20093;-72
2023/01/20 10:40:09;;;;;;;87.68;33.63;;;;;;;;;;5086464;28;20063;-73
2023/01/20 10:42:36;;;;;;;89.45;33.53;;;;;;;;;;5087613;28;20134;-73
2023/01/20 10:45:02;;;;;;;93.50;32.55;;;;;;;;;;5090923;28;20163;-72
2023/01/20 10:47:29;;;;;;;92.93;34.72;;;;;;;;;;5085821;28;20044;-73
2023/01/20 10:50:27;;;;;;;87.63;33.42;;;;;;;;;;5088144;28;20369;-73
2023/01/20 10:52:54;;;;;;;90.88;33.42;;;;;;;;;;5085890;28;20071;-73
2023/01/20 10:55:27;;;;;;;88.15;32.92;;;;;;;;;;5092938;28;20078;-73
2023/01/20 10:57:55;;;;;;;95.38;33.30;;;;;;;;;;5094850;28;20051;-73
2023/01/20 11:00:24;;;;;;;84.38;32.20;;;;;;;;;;5095165;28;20044;-73
2023/01/20 11:02:52;;;;;;;86.97;31.60;;;;;;;;;;5094413;28;20040;-73
2023/01/20 11:05:20;;;;;;;90.13;32.47;;;;;;;;;;5090556;28;20457;-73
2023/01/20 11:07:47;;;;;;;86.28;33.80;;;;;;;;;;5072093;28;20507;-73
2023/01/20 11:10:15;;;;;;;88.07;33.75;;;;;;;;;;5086765;28;20538;-73
2023/01/20 11:12:42;;;;;;;91.20;33.45;;;;;;;;;;5069193;28;20044;-73
2023/01/20 11:15:17;;;;;;;88.18;31.80;;;;;;;;;;5083537;28;20083;-73
2023/01/20 11:17:44;;;;;;;81.53;31.08;;;;;;;;;;5084937;28;20062;-73
2023/01/20 11:20:18;;;;;;;90.18;33.67;;;;;;;;;;5075383;28;20039;-73
2023/01/20 11:22:47;;;;;;;84.03;31.27;;;;;;;;;;5077771;28;20146;-73
2023/01/20 11:25:23;;;;;;;81.78;31.70;;;;;;;;;;5092063;28;20036;-74
2023/01/20 11:27:50;;;;;;;77.15;31.20;;;;;;;;;;5089708;28;20121;-72
2023/01/20 11:30:23;;;;;;;84.47;30.80;;;;;;;;;;5087906;28;20035;-71
2023/01/20 11:33:07;;;;;;;78.00;31.10;;;;;;;;;;5068072;28;20048;-71
2023/01/20 11:35:33;;;;;;;84.15;31.70;;;;;;;;;;5064065;28;20060;-75
2023/01/20 11:38:19;;;;;;;80.07;31.67;;;;;;;;;;5074433;28;20484;-75
2023/01/20 11:40:52;;;;;;;83.50;32.28;;;;;;;;;;5071006;28;20036;-75
2023/01/20 11:43:28;;;;;;;73.22;29.85;;;;;;;;;;5099188;28;20044;-75
2023/01/20 11:46:09;;;;;;;79.20;30.98;;;;;;;;;;5093770;27;20044;-75
2023/01/20 11:48:35;;;;;;;80.00;31.75;;;;;;;;;;5091370;28;20545;-75
2023/01/20 11:51:02;;;;;;;71.93;29.33;;;;;;;;;;5105667;28;20047;-75
2023/01/20 11:53:30;;;;;;;77.80;30.02;;;;;;;;;;5102054;28;20032;-75
2023/01/20 11:55:58;;;;;;;72.90;29.55;;;;;;;;;;5105034;28;20047;-76
2023/01/20 11:58:25;;;;;;;66.95;28.15;;;;;;;;;;5104108;27;20397;-75
2023/01/20 12:00:58;;;;;;;69.20;29.38;;;;;;;;;;5102405;28;20471;-75
2023/01/20 12:03:32;;;;;;;67.05;26.60;;;;;;;;;;5103623;28;20043;-74
2023/01/20 12:05:58;;;;;;;;;;;;;;;;;;5105551;28;20340;-75
2023/01/20 12:08:33;;;;;;;65.10;28.50;;;;;;;;;;5106821;28;19943;-75
2023/01/20 12:11:02;;;;;;;69.30;30.58;;;;;;;;;;5105045;28;20044;-75
2023/01/20 12:14:18;;;;;;;62.30;27.88;;;;;;;;;;5107344;28;20031;-75
2023/01/20 12:16:18;;;;;;;62.53;25.90;;;;;;;;;;5096541;27;20122;-72
2023/01/20 12:18:52;;;;;;;71.75;26.73;;;;;;;;;;5093416;27;20036;-72
2023/01/20 12:21:19;;;;;;;61.30;27.02;;;;;;;;;;5098488;27;20082;-74
2023/01/20 12:23:51;;;;;;;60.30;26.05;;;;;;;;;;5095308;28;20114;-73
2023/01/20 12:26:19;;;;;;;53.50;23.52;;;;;;;;;;5096288;28;20040;-74
2023/01/20 12:28:57;;;;;;;59.58;24.60;;;;;;;;;;5104774;28;20048;-74
2023/01/20 12:31:23;;;;;;;57.85;24.85;;;;;;;;;;5100471;28;20088;-74
2023/01/20 12:33:51;;;;;;;60.78;24.67;;;;;;;;;;5107385;28;20039;-75
2023/01/20 12:36:24;;;;;;;54.22;23.45;;;;;;;;;;5106823;28;20092;-72
2023/01/20 12:38:57;;;;;;;60.27;29.20;;;;;;;;;;5096476;28;20382;-73
2023/01/20 12:41:41;;;;;;;54.83;23.48;;;;;;;;;;5108888;28;20052;-72
2023/01/20 12:44:19;;;;;;;51.13;24.40;;;;;;;;;;5105926;28;20406;-73
2023/01/20 12:46:59;;;;;;;50.80;23.50;;;;;;;;;;5105473;28;20518;-73
2023/01/20 12:49:51;;;;;;;57.28;23.52;;;;;;;;;;5095172;28;20055;-73
2023/01/20 12:52:24;;;;;;;49.13;23.42;;;;;;;;;;5115542;27;20142;-74
2023/01/20 12:54:54;;;;;;;50.83;23.10;;;;;;;;;;5103515;28;20075;-73
2023/01/20 12:57:29;;;;;;;54.35;23.83;;;;;;;;;;5092599;28;20055;-74
2023/01/20 13:00:13;;;;;;;56.30;22.60;;;;;;;;;;5104643;28;20077;-74
2023/01/20 13:02:42;;;;;;;52.78;26.48;;;;;;;;;;5093960;28;20055;-74
2023/01/20 13:05:25;;;;;;;48.20;21.63;;;;;;;;;;5094955;28;20142;-74
2023/01/20 13:08:04;;;;;;;60.38;31.38;;;;;;;;;;5104343;28;20066;-74
2023/01/20 13:10:43;;;;;;;51.67;23.00;;;;;;;;;;5097747;28;20052;-74
2023/01/20 13:13:09;;;;;;;53.92;29.00;;;;;;;;;;5094620;28;20522;-73
2023/01/20 13:15:40;;;;;;;44.63;20.80;;;;;;;;;;5105574;28;20073;-73
2023/01/20 13:18:07;;;;;;;44.30;21.23;;;;;;;;;;5094088;28;20138;-77
2023/01/20 13:20:33;;;;;;;42.15;20.85;;;;;;;;;;5096869;28;20043;-72
2023/01/20 13:23:02;;;;;;;46.90;21.98;;;;;;;;;;5105090;28;21578;-75
2023/01/20 13:25:29;;;;;;;46.65;20.25;;;;;;;;;;5106487;27;20429;-75
2023/01/20 13:27:56;;;;;;;44.50;19.88;;;;;;;;;;5094598;27;20499;-72
2023/01/20 13:30:42;;;;;;;49.60;21.23;;;;;;;;;;5106748;27;20043;-71
2023/01/20 13:33:16;;;;;;;51.08;22.52;;;;;;;;;;5095990;27;20044;-72
2023/01/20 13:35:42;;;;;;;;;;;;;;;;;;5099866;28;20491;-75
2023/01/20 13:38:17;;;;;;;49.97;24.80;;;;;;;;;;5082791;28;20005;-69
2023/01/20 13:40:44;;;;;;;63.58;29.20;;;;;;;;;;5105699;27;20047;-73
2023/01/20 13:43:20;;;;;;;51.05;24.52;;;;;;;;;;5100423;27;20071;-74
2023/01/20 13:45:46;;;;;;;50.92;25.10;;;;;;;;;;5104695;28;20059;-73
2023/01/20 13:48:12;;;;;;;57.70;24.40;;;;;;;;;;5097236;28;20054;-70
2023/01/20 13:50:39;;;;;;;50.58;22.92;;;;;;;;;;5103267;28;20043;-74
2023/01/20 13:53:27;;;;;;;47.90;23.55;;;;;;;;;;5095225;28;20039;-74
2023/01/20 13:55:54;;;;;;;53.05;24.23;;;;;;;;;;5096887;28;20044;-74
2023/01/20 13:58:28;;;;;;;61.40;25.38;;;;;;;;;;5103502;27;20479;-74
2023/01/20 14:00:56;;;;;;;62.28;25.70;;;;;;;;;;5084177;28;20043;-75
2023/01/20 14:03:24;;;;;;;52.85;24.98;;;;;;;;;;5098214;28;20086;-75
2023/01/20 14:05:55;;;;;;;51.70;23.98;;;;;;;;;;5102961;28;20048;-75
2023/01/20 14:08:21;;;;;;;56.67;26.00;;;;;;;;;;5103671;27;20050;-75
2023/01/20 14:10:48;;;;;;;52.22;24.83;;;;;;;;;;5082733;28;20486;-74
2023/01/20 14:13:33;;;;;;;61.92;25.45;;;;;;;;;;5103683;27;20367;-75
2023/01/20 14:16:00;;;;;;;55.00;25.10;;;;;;;;;;5101800;28;20158;-76
2023/01/20 14:18:26;;;;;;;54.47;23.05;;;;;;;;;;5099629;28;20054;-76
2023/01/20 14:20:56;;;;;;;57.10;25.10;;;;;;;;;;5096975;28;20040;-77
2023/01/20 14:23:25;;;;;;;78.05;46.03;;;;;;;;;;5085576;28;20479;-75
2023/01/20 14:26:05;;;;;;;60.53;30.95;;;;;;;;;;5097601;28;20036;-75
2023/01/20 14:28:31;;;;;;;60.63;31.85;;;;;;;;;;5105214;28;20044;-75
2023/01/20 14:31:13;;;;;;;63.67;34.33;;;;;;;;;;5108497;28;20068;-80
2023/01/20 14:33:50;;;;;;;62.97;33.33;;;;;;;;;;5106442;28;20042;-75
2023/01/20 14:36:18;;;;;;;56.33;26.27;;;;;;;;;;5108218;28;20036;-69
2023/01/20 14:38:48;;;;;;;54.80;24.60;;;;;;;;;;5102462;28;20050;-75
2023/01/20 14:41:25;;;;;;;56.33;28.88;;;;;;;;;;5102075;28;20044;-77